Terminal Aerodrome Forecast
Issued by NWS

Home | Current Version | Previous Version | Text Only | Print | Product List | Glossary On
Versions: 1 2 3 4 5 6 7 8 9 10 11 12 13 14 15 16 17 18 19 20
000
FTUS43 KILX 261505 AAA
TAFBMI
TAF AMD
KBMI 261505Z 2615/2712 17015G25KT 6SM -SHRA OVC015
     FM261530 20020G30KT 3SM SHRA BR OVC020
      TEMPO 2616/2617 3/4SM +SHRA BR BKN012
     FM261800 22018G26KT P6SM VCTS OVC025CB
     FM270000 22012KT P6SM BKN035=

USA.gov is the U.S. government's official web portal to all federal, state and local government web resources and services.